createdAt,value
2017-11-23T00:00:03.765Z,9.3
2017-11-23T00:05:03.306Z,9.5
2017-11-23T00:10:02.899Z,9.5
2017-11-23T00:15:02.426Z,9.5
2017-11-23T00:20:03.088Z,9.5
2017-11-23T00:25:02.441Z,9.5
2017-11-23T00:30:02.846Z,9.5
2017-11-23T00:35:02.413Z,9.6
2017-11-23T00:40:02.904Z,9.6
2017-11-23T00:45:02.455Z,9.6
2017-11-23T00:50:02.913Z,9.8
2017-11-23T00:55:02.547Z,10.0
2017-11-23T01:00:03.135Z,10.0
2017-11-23T01:05:02.543Z,10.1
2017-11-23T01:10:03.070Z,10.1
2017-11-23T01:15:02.509Z,10.1
2017-11-23T01:20:03.166Z,10.0
2017-11-23T01:25:03.208Z,10.1
2017-11-23T01:30:02.775Z,10.1
2017-11-23T01:35:03.315Z,10.1
2017-11-23T01:40:02.785Z,10.0
2017-11-23T01:45:03.368Z,10.1
2017-11-23T01:50:02.982Z,10.1
2017-11-23T01:55:02.606Z,10.0
2017-11-23T02:00:03.207Z,10.1
2017-11-23T02:05:02.789Z,10.1
2017-11-23T02:10:02.442Z,10.1
2017-11-23T02:15:02.936Z,10.0
2017-11-23T02:20:02.556Z,9.8
2017-11-23T02:25:03.233Z,9.8
2017-11-23T02:30:02.792Z,10.0
2017-11-23T02:35:03.202Z,10.0
2017-11-23T02:40:02.823Z,10.1
2017-11-23T02:45:02.433Z,10.0
2017-11-23T02:50:02.913Z,10.0
2017-11-23T02:55:02.467Z,10.0
2017-11-23T03:00:02.915Z,10.0
2017-11-23T03:05:02.463Z,10.0
2017-11-23T03:10:03.052Z,9.8
2017-11-23T03:15:02.530Z,10.1
2017-11-23T03:20:02.974Z,10.0
2017-11-23T03:25:02.545Z,10.0
2017-11-23T03:30:03.085Z,10.1
2017-11-23T03:35:02.736Z,10.0
2017-11-23T03:45:02.662Z,10.0
2017-11-23T03:50:03.190Z,10.0
2017-11-23T03:55:02.725Z,10.0
2017-11-23T04:00:03.294Z,9.8
2017-11-23T04:05:02.763Z,9.8
2017-11-23T04:10:02.422Z,10.0
2017-11-23T04:15:03.014Z,9.8
2017-11-23T04:20:02.615Z,9.8
2017-11-23T04:25:03.075Z,9.6
2017-11-23T04:30:02.582Z,9.6
2017-11-23T04:35:03.155Z,9.6
2017-11-23T04:40:02.786Z,9.8
2017-11-23T04:45:03.320Z,9.8
2017-11-23T04:50:02.873Z,9.8
2017-11-23T04:55:02.500Z,9.8
2017-11-23T05:00:03.218Z,9.8
2017-11-23T05:05:02.803Z,10.0
2017-11-23T05:10:03.366Z,10.1
2017-11-23T05:15:02.814Z,10.1
2017-11-23T05:20:03.355Z,10.1
2017-11-23T05:25:02.861Z,10.5
2017-11-23T05:30:02.403Z,10.8
2017-11-23T05:35:02.965Z,10.8
2017-11-23T05:40:02.657Z,10.8
2017-11-23T05:45:03.062Z,10.8
2017-11-23T05:50:02.655Z,10.8
2017-11-23T05:55:03.254Z,10.8
2017-11-23T06:00:02.760Z,10.8
2017-11-23T06:05:03.204Z,11.0
2017-11-23T06:10:02.791Z,11.0
2017-11-23T06:15:02.407Z,11.0
2017-11-23T06:20:02.908Z,11.0
2017-11-23T06:25:02.392Z,11.1
2017-11-23T06:30:02.942Z,11.1
2017-11-23T06:35:02.393Z,11.3
2017-11-23T06:40:02.927Z,11.1
2017-11-23T06:45:02.534Z,11.3
2017-11-23T06:50:03.023Z,11.3
2017-11-23T06:55:02.553Z,11.1
2017-11-23T07:00:03.075Z,11.3
2017-11-23T07:05:02.702Z,11.3
2017-11-23T07:10:03.313Z,11.3
2017-11-23T07:15:02.846Z,11.3
2017-11-23T07:20:03.338Z,11.6
2017-11-23T07:25:02.992Z,11.6
2017-11-23T07:30:02.560Z,11.6
2017-11-23T07:35:03.088Z,11.6
2017-11-23T07:40:02.598Z,11.6
2017-11-23T07:45:03.068Z,11.6
2017-11-23T07:50:02.551Z,11.6
2017-11-23T07:55:03.142Z,12.0
2017-11-23T08:00:02.610Z,12.0
2017-11-23T08:05:03.113Z,12.0
2017-11-23T08:10:02.546Z,12.1
2017-11-23T08:15:02.987Z,12.1
2017-11-23T08:20:02.490Z,12.1
2017-11-23T08:25:03.132Z,12.1
2017-11-23T08:30:02.580Z,12.1
2017-11-23T08:35:03.056Z,12.3
2017-11-23T08:40:02.692Z,12.3
2017-11-23T08:45:03.297Z,12.6
2017-11-23T08:50:02.768Z,12.8
2017-11-23T08:55:03.313Z,13.3
2017-11-23T09:00:02.908Z,13.6
2017-11-23T09:05:02.538Z,13.6
2017-11-23T09:10:03.114Z,13.3
2017-11-23T09:15:02.580Z,13.5
2017-11-23T09:20:03.200Z,13.5
2017-11-23T09:25:02.765Z,13.6
2017-11-23T09:30:03.310Z,13.6
2017-11-23T09:35:02.886Z,13.6
2017-11-23T09:40:02.599Z,14.0
2017-11-23T09:45:03.235Z,13.8
2017-11-23T09:50:02.894Z,13.8
2017-11-23T09:55:02.511Z,13.6
2017-11-23T10:00:03.009Z,13.5
2017-11-23T10:05:02.629Z,13.3
2017-11-23T10:10:03.175Z,12.8
2017-11-23T10:15:02.590Z,12.1
2017-11-23T10:20:03.084Z,11.3
2017-11-23T10:25:02.739Z,11.3
2017-11-23T10:30:03.282Z,11.6
2017-11-23T10:35:02.674Z,11.3
2017-11-23T10:40:03.237Z,11.6
2017-11-23T10:45:02.813Z,11.6
2017-11-23T10:50:02.398Z,13.1
2017-11-23T10:55:02.972Z,13.5
2017-11-23T11:00:02.650Z,13.5
2017-11-23T11:05:03.248Z,13.5
2017-11-23T11:10:02.751Z,13.6
2017-11-23T11:15:03.273Z,13.6
2017-11-23T11:20:02.723Z,13.6
2017-11-23T11:25:03.345Z,14.0
2017-11-23T11:30:02.897Z,14.1
2017-11-23T11:35:02.409Z,14.1
2017-11-23T11:40:03.044Z,14.3
2017-11-23T11:45:02.686Z,14.3
2017-11-23T11:50:03.187Z,14.3
2017-11-23T11:55:02.596Z,14.5
2017-11-23T12:00:03.190Z,14.5
2017-11-23T12:05:02.676Z,14.6
2017-11-23T12:10:03.340Z,14.6
2017-11-23T12:15:02.765Z,14.5
2017-11-23T12:20:03.345Z,14.6
2017-11-23T12:25:02.908Z,14.6
2017-11-23T12:30:02.488Z,14.6
2017-11-23T12:35:02.956Z,14.6
2017-11-23T12:40:02.611Z,14.6
2017-11-23T12:45:03.162Z,14.6
2017-11-23T12:50:02.620Z,14.6
2017-11-23T12:55:03.113Z,14.6
2017-11-23T13:00:02.618Z,14.6
2017-11-23T13:05:03.303Z,14.6
2017-11-23T13:10:02.954Z,14.6
2017-11-23T13:15:02.415Z,14.6
2017-11-23T13:20:02.965Z,14.6
2017-11-23T13:25:02.565Z,14.6
2017-11-23T13:30:03.165Z,14.8
2017-11-23T13:35:02.754Z,15.0
2017-11-23T13:40:02.399Z,14.8
2017-11-23T13:45:02.910Z,14.6
2017-11-23T13:50:02.460Z,14.6
2017-11-23T13:55:02.991Z,14.6
2017-11-23T14:00:02.618Z,14.6
2017-11-23T14:05:03.210Z,14.5
2017-11-23T14:10:02.729Z,14.5
2017-11-23T14:15:03.345Z,13.6
2017-11-23T14:20:02.923Z,11.3
2017-11-23T14:25:02.451Z,11.3
2017-11-23T14:30:03.103Z,11.0
2017-11-23T14:35:02.624Z,9.6
2017-11-23T14:40:03.085Z,9.1
2017-11-23T14:45:02.465Z,9.1
2017-11-23T14:50:02.957Z,9.1
2017-11-23T14:55:02.438Z,9.1
2017-11-23T15:00:03.070Z,9.0
2017-11-23T15:05:02.657Z,9.0
2017-11-23T15:10:03.168Z,9.0
2017-11-23T15:15:02.687Z,9.0
2017-11-23T15:20:03.286Z,9.0
2017-11-23T15:25:02.698Z,8.8
2017-11-23T15:30:03.161Z,8.8
2017-11-23T15:35:02.632Z,8.8
2017-11-23T15:40:03.229Z,8.8
2017-11-23T15:45:02.832Z,9.0
2017-11-23T15:50:02.445Z,9.3
2017-11-23T15:55:03.195Z,10.6
2017-11-23T16:00:02.858Z,10.8
2017-11-23T16:05:03.372Z,10.8
2017-11-23T16:10:02.973Z,10.8
2017-11-23T16:15:02.537Z,10.8
2017-11-23T16:20:03.141Z,10.6
2017-11-23T16:25:02.589Z,10.6
2017-11-23T16:30:03.213Z,10.5
2017-11-23T16:35:02.746Z,10.3
2017-11-23T16:40:03.336Z,10.3
2017-11-23T16:45:02.736Z,10.3
2017-11-23T16:50:03.322Z,10.1
2017-11-23T16:55:02.877Z,10.1
2017-11-23T17:00:02.471Z,10.0
2017-11-23T17:05:02.982Z,10.0
2017-11-23T17:10:02.595Z,9.8
2017-11-23T17:15:03.057Z,10.0
2017-11-23T17:20:02.667Z,9.8
2017-11-23T17:25:03.239Z,9.6
2017-11-23T17:30:02.816Z,9.5
2017-11-23T17:35:03.284Z,9.5
2017-11-23T17:40:02.798Z,9.6
2017-11-23T17:45:03.330Z,9.3
2017-11-23T17:50:02.802Z,9.3
2017-11-23T17:55:03.299Z,9.0
2017-11-23T18:00:02.894Z,9.0
2017-11-23T18:05:03.318Z,9.0
2017-11-23T18:10:02.953Z,8.8
2017-11-23T18:15:02.612Z,8.6
2017-11-23T18:20:03.187Z,8.8
2017-11-23T18:25:02.710Z,8.8
2017-11-23T18:30:03.254Z,9.1
2017-11-23T18:35:02.833Z,9.1
2017-11-23T18:40:02.493Z,9.3
2017-11-23T18:45:03.023Z,9.3
2017-11-23T18:50:02.622Z,9.1
2017-11-23T18:55:03.216Z,9.0
2017-11-23T19:00:02.770Z,8.8
2017-11-23T19:05:02.463Z,8.6
2017-11-23T19:10:03.034Z,8.6
2017-11-23T19:15:02.558Z,8.6
2017-11-23T19:20:03.179Z,8.5
2017-11-23T19:25:02.657Z,8.3
2017-11-23T19:30:03.188Z,8.3
2017-11-23T19:35:02.747Z,8.3
2017-11-23T19:40:03.391Z,8.3
2017-11-23T19:45:02.957Z,8.3
2017-11-23T19:50:02.446Z,8.5
2017-11-23T19:55:02.919Z,8.3
2017-11-23T20:00:02.493Z,8.5
2017-11-23T20:05:02.967Z,8.5
2017-11-23T20:10:02.528Z,8.5
2017-11-23T20:15:03.085Z,8.6
2017-11-23T20:20:02.644Z,8.6
2017-11-23T20:25:03.271Z,8.6
2017-11-23T20:30:02.886Z,8.5
2017-11-23T20:35:02.561Z,8.5
2017-11-23T20:40:03.073Z,8.6
2017-11-23T20:45:02.531Z,8.6
2017-11-23T20:50:03.157Z,8.5
2017-11-23T20:55:02.793Z,8.6
2017-11-23T21:00:03.293Z,8.6
2017-11-23T21:05:02.794Z,8.6
2017-11-23T21:10:03.260Z,8.5
2017-11-23T21:15:02.889Z,8.5
2017-11-23T21:20:02.417Z,8.5
2017-11-23T21:25:02.987Z,8.5
2017-11-23T21:30:02.652Z,8.5
2017-11-23T21:35:03.175Z,8.3
2017-11-23T21:40:02.805Z,8.5
2017-11-23T21:45:03.365Z,8.3
2017-11-23T21:50:02.834Z,8.3
2017-11-23T21:55:03.296Z,8.3
2017-11-23T22:00:02.892Z,8.3
2017-11-23T22:05:02.486Z,8.1
2017-11-23T22:10:03.123Z,8.3
2017-11-23T22:15:02.580Z,8.1
2017-11-23T22:20:03.064Z,8.1
2017-11-23T22:25:02.675Z,8.3
2017-11-23T22:30:03.153Z,8.3
2017-11-23T22:35:02.677Z,8.5
2017-11-23T22:40:03.155Z,8.3
2017-11-23T22:45:02.698Z,8.3
2017-11-23T22:50:03.286Z,8.3
2017-11-23T22:55:02.922Z,8.5
2017-11-23T23:00:02.480Z,8.5
2017-11-23T23:05:03.062Z,8.5
2017-11-23T23:10:02.711Z,8.3
2017-11-23T23:15:03.143Z,8.3
2017-11-23T23:20:02.592Z,8.3
2017-11-23T23:25:03.117Z,8.1
2017-11-23T23:30:02.688Z,8.1
2017-11-23T23:35:03.168Z,8.3
2017-11-23T23:40:02.878Z,8.3
2017-11-23T23:45:02.473Z,8.1
2017-11-23T23:50:03.012Z,8.0
2017-11-23T23:55:02.707Z,8.0
